createdAt,value
2022-11-27T00:01:24.277Z,87.80
2022-11-27T00:05:32.369Z,88.12
2022-11-27T00:09:41.570Z,88.12
2022-11-27T00:13:50.254Z,87.88
2022-11-27T00:17:58.045Z,87.90
2022-11-27T00:22:05.369Z,88.00
2022-11-27T00:26:13.809Z,87.79
2022-11-27T00:30:22.088Z,87.76
2022-11-27T00:34:29.875Z,87.87
2022-11-27T00:38:39.172Z,87.97
2022-11-27T00:42:47.048Z,87.88
2022-11-27T00:46:57.612Z,87.57
2022-11-27T00:51:08.344Z,87.66
2022-11-27T00:55:15.970Z,87.80
2022-11-27T00:59:23.706Z,87.74
2022-11-27T01:03:32.602Z,87.63
2022-11-27T01:07:40.376Z,87.68
2022-11-27T01:11:48.337Z,87.60
2022-11-27T01:16:03.795Z,87.77
2022-11-27T01:20:13.758Z,87.56
2022-11-27T01:24:21.786Z,87.44
2022-11-27T01:28:29.475Z,87.41
2022-11-27T01:32:37.354Z,87.32
2022-11-27T01:36:44.692Z,87.39
2022-11-27T01:40:56.084Z,87.48
2022-11-27T01:45:04.332Z,87.40
2022-11-27T01:49:26.081Z,87.31
2022-11-27T01:53:35.824Z,87.32
2022-11-27T01:57:47.581Z,87.08
2022-11-27T02:01:55.671Z,87.35
2022-11-27T02:06:04.110Z,87.58
2022-11-27T02:10:14.451Z,87.49
2022-11-27T02:14:28.160Z,87.23
2022-11-27T02:18:42.597Z,87.30
2022-11-27T02:23:03.005Z,87.09
2022-11-27T02:27:40.106Z,87.31
2022-11-27T02:31:51.268Z,87.28
2022-11-27T02:36:03.643Z,87.57
2022-11-27T02:40:16.620Z,87.68
2022-11-27T02:44:25.088Z,87.35
2022-11-27T02:48:35.231Z,87.59
2022-11-27T02:52:43.513Z,87.63
2022-11-27T02:56:52.113Z,87.66
2022-11-27T03:01:01.066Z,87.81
2022-11-27T03:05:11.141Z,87.70
2022-11-27T03:09:20.483Z,87.59
2022-11-27T03:13:29.049Z,87.60
2022-11-27T03:17:47.132Z,87.69
2022-11-27T03:21:57.906Z,87.70
2022-11-27T03:26:05.194Z,87.77
2022-11-27T03:30:15.130Z,87.64
2022-11-27T03:34:22.937Z,87.47
2022-11-27T03:38:31.159Z,87.60
2022-11-27T03:42:47.552Z,87.72
2022-11-27T03:47:05.543Z,87.55
2022-11-27T03:51:19.252Z,87.41
2022-11-27T03:55:32.334Z,87.30
2022-11-27T03:59:43.231Z,87.14
2022-11-27T04:03:50.870Z,87.09
2022-11-27T04:07:58.872Z,87.29
2022-11-27T04:12:06.506Z,87.10
2022-11-27T04:16:14.313Z,87.07
2022-11-27T04:20:22.037Z,86.82
2022-11-27T04:24:30.512Z,86.93
2022-11-27T04:28:39.366Z,86.83
2022-11-27T04:32:47.494Z,86.95
2022-11-27T04:36:54.913Z,86.81
2022-11-27T04:41:02.905Z,86.78
2022-11-27T04:45:12.386Z,86.69
2022-11-27T04:49:21.185Z,86.70
2022-11-27T04:53:29.402Z,86.74
2022-11-27T04:57:36.896Z,86.53
2022-11-27T05:01:44.903Z,86.48
2022-11-27T05:05:59.110Z,86.52
2022-11-27T05:10:07.932Z,86.71
2022-11-27T05:14:20.315Z,86.90
2022-11-27T05:18:28.549Z,86.88
2022-11-27T05:22:35.868Z,86.70
2022-11-27T05:26:46.149Z,87.04
2022-11-27T05:30:53.522Z,87.03
2022-11-27T05:35:02.496Z,87.01
2022-11-27T05:39:11.458Z,87.25
2022-11-27T05:43:21.633Z,87.03
2022-11-27T05:47:29.028Z,86.86
2022-11-27T05:51:36.525Z,86.92
2022-11-27T05:55:43.539Z,87.00
2022-11-27T05:59:50.957Z,86.86
2022-11-27T06:03:58.595Z,86.71
2022-11-27T06:08:06.023Z,86.80
2022-11-27T06:12:13.640Z,86.86
2022-11-27T06:16:23.273Z,86.57
2022-11-27T06:20:31.357Z,86.58
2022-11-27T06:24:39.092Z,86.77
2022-11-27T06:28:48.748Z,86.92
2022-11-27T06:32:57.437Z,86.89
2022-11-27T06:37:08.058Z,86.71
2022-11-27T06:41:21.364Z,86.84
2022-11-27T06:45:29.160Z,86.87
2022-11-27T06:49:37.708Z,86.94
2022-11-27T06:53:45.993Z,86.68
2022-11-27T06:57:54.613Z,86.70
2022-11-27T07:02:02.330Z,86.77
2022-11-27T07:06:16.631Z,86.79
2022-11-27T07:10:24.152Z,86.74
2022-11-27T07:14:31.763Z,86.94
2022-11-27T07:18:42.630Z,86.81
2022-11-27T07:22:50.503Z,87.04
2022-11-27T07:26:58.125Z,86.99
2022-11-27T07:31:06.354Z,86.97
2022-11-27T07:35:13.637Z,87.01
2022-11-27T07:39:39.438Z,87.19
2022-11-27T07:43:50.074Z,87.03
2022-11-27T07:47:58.098Z,87.03
2022-11-27T07:52:10.543Z,87.13
2022-11-27T07:56:19.820Z,87.45
2022-11-27T08:00:27.869Z,87.53
2022-11-27T08:04:36.012Z,87.54
2022-11-27T08:08:43.833Z,87.53
2022-11-27T08:12:51.659Z,87.63
2022-11-27T08:17:00.300Z,87.51
2022-11-27T08:21:08.412Z,87.37
2022-11-27T08:25:18.408Z,87.43
2022-11-27T08:29:31.185Z,87.67
2022-11-27T08:33:41.653Z,87.68
2022-11-27T08:37:49.608Z,87.45
2022-11-27T08:41:57.300Z,87.55
2022-11-27T08:46:06.918Z,87.41
2022-11-27T08:50:14.508Z,87.49
2022-11-27T08:54:22.847Z,87.67
2022-11-27T08:58:30.762Z,87.45
2022-11-27T09:02:40.253Z,87.42
2022-11-27T09:06:51.043Z,87.44
2022-11-27T09:11:05.208Z,87.55
2022-11-27T09:15:13.765Z,87.55
2022-11-27T09:19:21.790Z,87.78
2022-11-27T09:23:29.384Z,88.01
2022-11-27T09:27:37.675Z,88.00
2022-11-27T09:31:46.026Z,87.91
2022-11-27T09:35:53.671Z,88.12
2022-11-27T09:40:01.006Z,87.86
2022-11-27T09:44:18.087Z,87.97
2022-11-27T09:48:28.819Z,88.04
2022-11-27T09:52:40.517Z,87.99
2022-11-27T09:56:52.089Z,87.89
2022-11-27T10:01:01.447Z,87.95
2022-11-27T10:05:17.213Z,87.99
2022-11-27T10:09:32.011Z,87.94
2022-11-27T10:13:48.470Z,87.69
2022-11-27T10:18:02.862Z,87.62
2022-11-27T10:22:20.924Z,87.42
2022-11-27T10:26:35.809Z,87.16
2022-11-27T10:30:52.251Z,87.27
2022-11-27T10:35:06.196Z,86.71
2022-11-27T10:39:17.367Z,86.97
2022-11-27T10:43:26.122Z,87.28
2022-11-27T10:47:34.462Z,87.21
2022-11-27T10:51:44.003Z,86.95
2022-11-27T10:56:07.121Z,86.80
2022-11-27T11:00:20.840Z,86.85
2022-11-27T11:04:37.940Z,86.34
2022-11-27T11:08:46.001Z,86.24
2022-11-27T11:13:04.971Z,86.02
2022-11-27T11:17:19.604Z,86.07
2022-11-27T11:21:30.739Z,85.97
2022-11-27T11:25:39.953Z,85.37
2022-11-27T11:29:52.978Z,85.81
2022-11-27T11:34:04.295Z,85.62
2022-11-27T11:38:19.454Z,85.48
2022-11-27T11:42:28.542Z,85.86
2022-11-27T11:46:40.557Z,85.79
2022-11-27T11:50:52.664Z,85.46
2022-11-27T11:55:08.267Z,85.18
2022-11-27T11:59:22.082Z,84.69
2022-11-27T12:03:45.405Z,84.62
2022-11-27T12:08:04.700Z,84.71
2022-11-27T12:12:20.789Z,84.77
2022-11-27T12:16:36.572Z,84.48
2022-11-27T12:20:56.501Z,84.59
2022-11-27T12:25:11.661Z,83.95
2022-11-27T12:29:46.069Z,84.31
2022-11-27T12:34:02.513Z,84.29
2022-11-27T12:38:30.039Z,83.89
2022-11-27T12:42:43.526Z,84.00
2022-11-27T12:46:55.789Z,83.72
2022-11-27T12:51:08.129Z,84.13
2022-11-27T12:55:20.282Z,84.11
2022-11-27T12:59:35.265Z,84.26
2022-11-27T13:03:50.494Z,84.20
2022-11-27T13:08:03.937Z,84.14
2022-11-27T13:12:13.968Z,83.98
2022-11-27T13:16:25.516Z,84.17
2022-11-27T13:20:38.256Z,83.96
2022-11-27T13:24:45.862Z,84.03
2022-11-27T13:29:02.176Z,84.23
2022-11-27T13:33:16.557Z,84.24
2022-11-27T13:37:30.138Z,84.22
2022-11-27T13:41:41.061Z,83.98
2022-11-27T13:45:49.010Z,84.20
2022-11-27T13:50:04.680Z,84.26
2022-11-27T13:54:18.357Z,84.13
2022-11-27T13:58:34.362Z,84.28
2022-11-27T14:02:47.463Z,84.42
2022-11-27T14:06:59.862Z,84.32
2022-11-27T14:11:12.000Z,84.27
2022-11-27T14:15:26.591Z,84.42
2022-11-27T14:19:37.970Z,84.31
2022-11-27T14:23:54.084Z,84.25
2022-11-27T14:28:05.438Z,84.32
2022-11-27T14:32:15.750Z,84.44
2022-11-27T14:36:30.459Z,84.34
2022-11-27T14:40:39.201Z,84.42
2022-11-27T14:44:47.271Z,84.21
2022-11-27T14:48:56.601Z,84.26
2022-11-27T14:53:06.733Z,84.49
2022-11-27T14:57:18.935Z,84.48
2022-11-27T15:01:28.057Z,84.77
2022-11-27T15:05:37.267Z,84.86
2022-11-27T15:09:49.274Z,84.80
2022-11-27T15:13:59.573Z,84.87
2022-11-27T15:18:12.669Z,85.12
2022-11-27T15:22:23.901Z,85.06
2022-11-27T15:26:39.823Z,85.16
2022-11-27T15:30:48.889Z,85.09
2022-11-27T15:34:58.057Z,85.20
2022-11-27T15:39:23.510Z,85.23
2022-11-27T15:43:31.422Z,85.35
2022-11-27T15:47:40.644Z,85.46
2022-11-27T15:51:49.235Z,85.49
2022-11-27T15:55:56.751Z,85.57
2022-11-27T16:00:07.582Z,85.70
2022-11-27T16:04:14.814Z,85.69
2022-11-27T16:08:21.935Z,85.85
2022-11-27T16:12:29.240Z,85.89
2022-11-27T16:16:36.913Z,85.93
2022-11-27T16:20:44.635Z,86.15
2022-11-27T16:24:52.123Z,86.19
2022-11-27T16:28:59.764Z,86.21
2022-11-27T16:33:07.787Z,86.52
2022-11-27T16:37:18.339Z,86.35
2022-11-27T16:41:28.882Z,86.51
2022-11-27T16:45:40.086Z,86.48
2022-11-27T16:49:47.791Z,86.48
2022-11-27T16:53:56.954Z,86.56
2022-11-27T16:58:05.354Z,86.44
2022-11-27T17:02:14.031Z,86.36
2022-11-27T17:06:24.259Z,86.49
2022-11-27T17:10:32.405Z,86.56
2022-11-27T17:14:42.814Z,86.75
2022-11-27T17:18:50.257Z,86.67
2022-11-27T17:22:58.164Z,86.55
2022-11-27T17:27:05.773Z,86.45
2022-11-27T17:31:18.830Z,86.46
2022-11-27T17:35:26.947Z,86.58
2022-11-27T17:39:34.176Z,86.64
2022-11-27T17:43:44.530Z,86.82
2022-11-27T17:47:52.097Z,86.60
2022-11-27T17:52:04.859Z,86.82
2022-11-27T17:56:16.389Z,86.85
2022-11-27T18:00:23.996Z,86.99
2022-11-27T18:04:32.667Z,86.50
2022-11-27T18:08:41.131Z,86.84
2022-11-27T18:12:49.130Z,86.83
2022-11-27T18:16:56.546Z,86.83
2022-11-27T18:21:15.313Z,87.07
2022-11-27T18:25:26.888Z,86.79
2022-11-27T18:29:34.581Z,86.56
2022-11-27T18:33:42.768Z,86.73
2022-11-27T18:37:50.011Z,86.80
2022-11-27T18:41:58.581Z,86.91
2022-11-27T18:46:07.558Z,86.98
2022-11-27T18:50:15.753Z,87.31
2022-11-27T18:54:23.587Z,87.51
2022-11-27T18:58:35.237Z,87.64
2022-11-27T19:02:42.778Z,87.64
2022-11-27T19:06:50.347Z,87.88
2022-11-27T19:10:58.863Z,87.75
2022-11-27T19:15:07.679Z,87.88
2022-11-27T19:19:54.014Z,87.68
2022-11-27T19:23:47.556Z,87.84
2022-11-27T19:27:55.046Z,87.78
2022-11-27T19:32:03.243Z,87.69
2022-11-27T19:36:13.596Z,87.51
2022-11-27T19:40:22.367Z,87.87
2022-11-27T19:44:29.979Z,88.09
2022-11-27T19:48:37.244Z,88.08
2022-11-27T19:52:45.204Z,87.90
2022-11-27T19:56:53.173Z,88.10
2022-11-27T20:01:08.276Z,88.15
2022-11-27T20:05:16.105Z,88.16
2022-11-27T20:09:23.560Z,88.05
2022-11-27T20:13:31.542Z,88.13
2022-11-27T20:17:39.028Z,88.24
2022-11-27T20:21:46.506Z,88.20
2022-11-27T20:25:53.960Z,88.28
2022-11-27T20:30:01.291Z,88.20
2022-11-27T20:34:09.523Z,88.16
2022-11-27T20:38:17.045Z,88.30
2022-11-27T20:42:26.297Z,88.14
2022-11-27T20:46:34.975Z,88.17
2022-11-27T20:50:49.750Z,88.27
2022-11-27T20:54:59.165Z,88.32
2022-11-27T20:59:08.155Z,88.49
2022-11-27T21:03:16.149Z,88.50
2022-11-27T21:07:24.029Z,88.85
2022-11-27T21:11:32.927Z,88.89
2022-11-27T21:15:40.835Z,88.95
2022-11-27T21:19:51.066Z,88.88
2022-11-27T21:23:58.684Z,89.46
2022-11-27T21:28:06.419Z,89.71
2022-11-27T21:32:14.414Z,89.91
2022-11-27T21:36:23.271Z,89.49
2022-11-27T21:40:30.825Z,89.97
2022-11-27T21:44:41.806Z,89.77
2022-11-27T21:48:51.677Z,90.28
2022-11-27T21:52:59.317Z,90.00
2022-11-27T21:57:07.075Z,90.41
2022-11-27T22:01:17.345Z,90.44
2022-11-27T22:05:24.958Z,90.48
2022-11-27T22:09:34.480Z,90.39
2022-11-27T22:13:42.743Z,90.21
2022-11-27T22:17:50.600Z,90.41
2022-11-27T22:21:58.612Z,90.28
2022-11-27T22:26:07.856Z,90.48
2022-11-27T22:30:16.232Z,90.50
2022-11-27T22:34:23.696Z,90.37
2022-11-27T22:38:31.965Z,90.25
2022-11-27T22:42:39.479Z,90.35
2022-11-27T22:46:48.193Z,90.57
2022-11-27T22:51:00.484Z,90.32
2022-11-27T22:55:08.965Z,90.59
2022-11-27T22:59:34.128Z,90.11
2022-11-27T23:03:43.072Z,90.46
2022-11-27T23:07:50.871Z,90.25
2022-11-27T23:11:58.820Z,90.07
2022-11-27T23:16:07.666Z,90.32
2022-11-27T23:20:16.724Z,89.85
2022-11-27T23:24:24.577Z,90.00
2022-11-27T23:28:32.173Z,89.87
2022-11-27T23:32:40.739Z,89.72
2022-11-27T23:36:48.061Z,89.78
2022-11-27T23:40:55.885Z,89.97
2022-11-27T23:45:03.832Z,90.05
2022-11-27T23:49:11.424Z,90.17
2022-11-27T23:53:19.038Z,89.95
2022-11-27T23:57:26.425Z,90.03
